Time;durP1;ratioP1;P1;durP2;ratioP2;P2;SDS_P1;SDS_P2;PMS_P1;PMS_P2;Temp;Humidity;BMP_temperature;BMP_pressure;BME280_temperature;BME280_humidity;BME280_pressure;Samples;Min_cycle;Max_cycle;Signal;HPM_P1;HPM_P2
2022/03/16 00:00:29;;;;;;;27.47;24.77;;;8.70;99.90;;;;;;5045898;28;20205;-91
2022/03/16 00:02:54;;;;;;;30.63;27.53;;;8.60;99.90;;;;;;5049881;28;20215;-91
2022/03/16 00:05:20;;;;;;;30.60;27.33;;;8.60;99.90;;;;;;5038951;28;20243;-91
2022/03/16 00:07:46;;;;;;;29.03;26.00;;;8.60;99.90;;;;;;5033733;28;20181;-91
2022/03/16 00:10:12;;;;;;;29.73;26.83;;;8.70;99.90;;;;;;5041504;28;20188;-90
2022/03/16 00:12:41;;;;;;;30.43;27.53;;;8.70;99.90;;;;;;5041167;28;20615;-90
2022/03/16 00:15:07;;;;;;;29.27;26.37;;;8.80;99.90;;;;;;5059637;28;20184;-91
2022/03/16 00:17:33;;;;;;;33.50;30.07;;;8.70;99.90;;;;;;5041717;28;20185;-91
2022/03/16 00:19:59;;;;;;;31.97;28.77;;;8.80;99.90;;;;;;5046765;28;20263;-90
2022/03/16 00:22:25;;;;;;;32.13;28.83;;;8.80;99.90;;;;;;5057135;28;20742;-90
2022/03/16 00:24:51;;;;;;;32.23;29.03;;;8.80;99.90;;;;;;5041722;28;20219;-90
2022/03/16 00:27:16;;;;;;;30.73;27.57;;;8.80;99.90;;;;;;5044376;28;20203;-90
2022/03/16 00:29:42;;;;;;;33.33;29.70;;;8.80;99.90;;;;;;5027749;28;20181;-90
2022/03/16 00:32:08;;;;;;;32.93;29.53;;;8.80;99.90;;;;;;5043883;28;20231;-90
2022/03/16 00:34:33;;;;;;;33.73;30.23;;;8.80;99.90;;;;;;5036053;28;20192;-90
2022/03/16 00:37:00;;;;;;;31.27;28.00;;;8.80;99.90;;;;;;5063620;28;20245;-90
2022/03/16 00:39:25;;;;;;;33.23;29.77;;;8.80;99.90;;;;;;5065168;28;20303;-90
2022/03/16 00:41:51;;;;;;;32.30;29.00;;;8.90;99.90;;;;;;5030849;28;20205;-90
2022/03/16 00:44:17;;;;;;;32.90;29.33;;;8.80;99.90;;;;;;5014948;28;20283;-90
2022/03/16 00:46:43;;;;;;;30.90;27.80;;;8.90;99.90;;;;;;5065646;28;20172;-90
2022/03/16 00:49:09;;;;;;;33.00;29.80;;;8.90;99.90;;;;;;5062128;28;20248;-90
2022/03/16 00:51:35;;;;;;;34.33;30.93;;;9.00;99.90;;;;;;5060046;28;20250;-90
2022/03/16 00:54:00;;;;;;;31.83;28.53;;;8.90;99.90;;;;;;5065120;28;20686;-91
2022/03/16 00:56:26;;;;;;;33.93;30.43;;;8.90;99.90;;;;;;5010437;28;20214;-91
2022/03/16 00:58:52;;;;;;;36.87;33.00;;;8.90;99.90;;;;;;5023609;28;20204;-90
2022/03/16 01:01:17;;;;;;;33.00;29.63;;;8.80;99.90;;;;;;5056697;28;20585;-90
2022/03/16 01:03:43;;;;;;;32.70;29.40;;;8.80;99.90;;;;;;5061359;28;20185;-90
2022/03/16 01:06:15;;;;;;;34.37;30.70;;;8.80;99.90;;;;;;5071963;28;20211;-90
2022/03/16 01:08:44;;;;;;;34.57;30.63;;;8.80;99.90;;;;;;5068621;28;20219;-90
2022/03/16 01:11:12;;;;;;;34.83;30.83;;;8.80;99.90;;;;;;5065089;28;20180;-89
2022/03/16 01:13:38;;;;;;;36.47;32.57;;;8.80;99.90;;;;;;5066968;28;20186;-90
2022/03/16 01:16:04;;;;;;;34.80;31.17;;;8.80;99.90;;;;;;5051895;28;20192;-90
2022/03/16 01:18:30;;;;;;;36.50;32.47;;;8.80;99.90;;;;;;5047114;28;20613;-90
2022/03/16 01:20:56;;;;;;;35.63;31.87;;;8.70;99.90;;;;;;5048586;28;20184;-90
2022/03/16 01:23:22;;;;;;;38.10;34.00;;;8.70;99.90;;;;;;5076125;28;20181;-89
2022/03/16 01:25:48;;;;;;;38.33;32.40;;;8.70;99.90;;;;;;5039602;28;20726;-90
2022/03/16 01:28:13;;;;;;;38.17;33.83;;;8.60;99.90;;;;;;5017335;28;20181;-90
2022/03/16 01:30:42;;;;;;;37.10;31.43;;;8.60;99.90;;;;;;5051982;28;20173;-90
2022/03/16 01:33:08;;;;;;;35.83;31.83;;;8.60;99.90;;;;;;5059121;28;20264;-91
2022/03/16 01:35:34;;;;;;;38.30;34.17;;;8.50;99.90;;;;;;5070369;28;20184;-90
2022/03/16 01:37:59;;;;;;;37.80;32.00;;;8.50;99.90;;;;;;5047885;28;20215;-90
2022/03/16 01:40:25;;;;;;;36.13;32.23;;;8.50;99.90;;;;;;5064933;28;20223;-91
2022/03/16 01:42:51;;;;;;;38.93;34.73;;;8.50;99.90;;;;;;5064971;28;20200;-91
2022/03/16 01:45:17;;;;;;;37.67;33.67;;;8.50;99.90;;;;;;5030520;28;20192;-91
2022/03/16 01:47:42;;;;;;;41.07;34.53;;;8.50;99.90;;;;;;5039186;28;20188;-90
2022/03/16 01:50:09;;;;;;;41.33;36.30;;;8.40;99.90;;;;;;5050294;28;20196;-89
2022/03/16 01:52:34;;;;;;;43.13;36.63;;;8.40;99.90;;;;;;5047387;28;20247;-89
2022/03/16 01:55:04;;;;;;;45.87;37.67;;;8.30;99.90;;;;;;5047246;28;20180;-89
2022/03/16 01:57:33;;;;;;;39.83;32.97;;;8.30;99.90;;;;;;5064816;28;20161;-88
2022/03/16 02:00:00;;;;;;;40.60;36.03;;;8.20;99.90;;;;;;5051204;28;20215;-89
2022/03/16 02:02:25;;;;;;;46.70;36.67;;;8.30;99.90;;;;;;5045474;28;20229;-89
2022/03/16 02:04:51;;;;;;;46.57;36.13;;;8.20;99.90;;;;;;5050869;28;20180;-90
2022/03/16 02:07:17;;;;;;;47.07;38.27;;;8.20;99.90;;;;;;5068705;28;20191;-89
2022/03/16 02:09:43;;;;;;;44.37;38.07;;;8.20;99.90;;;;;;5068595;28;20269;-89
2022/03/16 02:12:12;;;;;;;49.70;36.10;;;8.20;99.90;;;;;;5066029;28;20613;-89
2022/03/16 02:14:38;;;;;;;46.47;37.17;;;8.20;99.90;;;;;;5051878;28;20230;-89
2022/03/16 02:17:04;;;;;;;46.67;36.83;;;8.10;99.90;;;;;;5068571;28;20188;-89
2022/03/16 02:19:30;;;;;;;45.63;38.10;;;8.10;99.90;;;;;;5049056;28;20262;-89
2022/03/16 02:21:59;;;;;;;53.40;39.50;;;8.10;99.90;;;;;;5029928;28;20299;-89
2022/03/16 02:24:26;;;;;;;50.07;37.57;;;8.10;99.90;;;;;;5014055;28;20189;-88
2022/03/16 02:26:52;;;;;;;51.43;40.60;;;8.10;99.90;;;;;;5034745;28;20219;-88
2022/03/16 02:29:18;;;;;;;49.73;38.20;;;8.00;99.90;;;;;;5066719;28;20184;-90
2022/03/16 02:31:44;;;;;;;47.50;38.00;;;8.00;99.90;;;;;;5036638;28;20224;-89
2022/03/16 02:34:09;;;;;;;49.13;39.17;;;8.00;99.90;;;;;;5018121;28;20193;-89
2022/03/16 02:36:35;;;;;;;48.33;39.27;;;8.00;99.90;;;;;;5041198;28;20189;-89
2022/03/16 02:39:01;;;;;;;51.93;39.60;;;8.00;99.90;;;;;;5055471;28;20211;-90
2022/03/16 02:41:27;;;;;;;49.37;39.27;;;8.10;99.90;;;;;;5029017;28;20201;-89
2022/03/16 02:43:52;;;;;;;50.57;38.13;;;8.00;99.90;;;;;;5028357;28;20629;-90
2022/03/16 02:46:18;;;;;;;52.70;40.37;;;7.90;99.90;;;;;;5029208;28;20271;-90
2022/03/16 02:48:44;;;;;;;52.20;39.53;;;8.00;99.90;;;;;;5028428;28;20189;-90
2022/03/16 02:51:10;;;;;;;53.07;41.13;;;7.90;99.90;;;;;;5041833;28;20180;-90
2022/03/16 02:53:36;;;;;;;49.93;40.00;;;7.90;99.90;;;;;;5048098;28;20245;-90
2022/03/16 02:56:01;;;;;;;55.33;42.10;;;8.00;99.90;;;;;;5034155;28;20193;-90
2022/03/16 02:58:27;;;;;;;54.27;42.93;;;8.00;99.90;;;;;;5020055;28;20193;-90
2022/03/16 03:00:53;;;;;;;53.00;41.10;;;8.00;99.90;;;;;;5052035;28;20200;-89
2022/03/16 03:03:18;;;;;;;54.23;39.90;;;7.90;99.90;;;;;;5055670;28;20216;-90
2022/03/16 03:05:44;;;;;;;52.80;40.90;;;7.90;99.90;;;;;;5046469;28;20177;-90
2022/03/16 03:08:10;;;;;;;53.90;41.57;;;7.80;99.90;;;;;;5051116;28;20216;-88
2022/03/16 03:10:36;;;;;;;58.73;41.17;;;7.70;99.90;;;;;;5049565;28;20185;-90
2022/03/16 03:13:02;;;;;;;55.83;41.77;;;7.70;99.90;;;;;;5030450;28;20224;-89
2022/03/16 03:15:28;;;;;;;59.23;43.03;;;7.70;99.90;;;;;;5046722;28;20181;-88
2022/03/16 03:17:54;;;;;;;56.83;39.40;;;7.60;99.90;;;;;;5028182;28;20181;-89
2022/03/16 03:20:19;;;;;;;58.60;42.13;;;7.60;99.90;;;;;;5060044;28;20227;-89
2022/03/16 03:22:45;;;;;;;56.53;39.30;;;7.60;99.90;;;;;;5061367;28;20311;-89
2022/03/16 03:25:13;;;;;;;56.83;41.37;;;7.60;99.90;;;;;;5056653;28;20196;-89
2022/03/16 03:27:39;;;;;;;55.33;39.47;;;7.60;99.90;;;;;;5062740;28;20192;-90
2022/03/16 03:30:06;;;;;;;56.30;39.93;;;7.60;99.90;;;;;;5048899;28;20216;-89
2022/03/16 03:32:32;;;;;;;57.90;41.33;;;7.70;99.90;;;;;;5028881;28;20209;-89
2022/03/16 03:34:58;;;;;;;51.67;37.77;;;7.70;99.90;;;;;;5065295;28;20180;-90
2022/03/16 03:37:29;;;;;;;49.97;36.83;;;7.70;99.90;;;;;;5027321;28;20189;-88
2022/03/16 03:39:55;;;;;;;52.83;38.20;;;7.80;99.90;;;;;;5045079;28;20208;-90
2022/03/16 03:42:21;;;;;;;51.00;38.20;;;7.80;99.90;;;;;;5045489;28;20714;-89
2022/03/16 03:44:47;;;;;;;52.00;39.33;;;7.80;99.90;;;;;;5027610;28;20197;-89
2022/03/16 03:47:13;;;;;;;51.83;38.17;;;7.90;99.90;;;;;;5057927;28;20173;-88
2022/03/16 03:49:40;;;;;;;51.10;38.10;;;7.70;99.90;;;;;;5048298;28;20276;-89
2022/03/16 03:52:07;;;;;;;48.67;38.63;;;7.70;99.90;;;;;;5057554;28;20215;-88
2022/03/16 03:54:33;;;;;;;51.57;37.83;;;7.80;99.90;;;;;;5033562;28;20181;-89
2022/03/16 03:56:59;;;;;;;52.87;38.60;;;7.70;99.90;;;;;;5045194;28;20659;-90
2022/03/16 03:59:25;;;;;;;48.50;36.80;;;7.80;99.90;;;;;;5048603;28;20207;-90
2022/03/16 04:01:51;;;;;;;46.87;36.80;;;7.80;99.90;;;;;;5030395;28;20208;-89
2022/03/16 04:04:18;;;;;;;50.83;36.80;;;7.80;99.90;;;;;;5064090;28;20180;-89
2022/03/16 04:06:44;;;;;;;50.83;36.70;;;7.80;99.90;;;;;;5064432;28;20208;-89
2022/03/16 04:09:10;;;;;;;49.43;36.17;;;7.80;99.90;;;;;;5064274;28;20636;-89
2022/03/16 04:11:36;;;;;;;50.03;36.97;;;7.90;99.90;;;;;;5064331;28;20245;-89
2022/03/16 04:14:02;;;;;;;49.87;36.23;;;7.80;99.90;;;;;;5057228;28;20275;-89
2022/03/16 04:16:28;;;;;;;50.63;36.80;;;7.80;99.90;;;;;;5033986;28;20188;-89
2022/03/16 04:18:54;;;;;;;45.23;34.53;;;7.80;99.90;;;;;;5064185;28;20235;-89
2022/03/16 04:21:20;;;;;;;48.23;37.10;;;7.80;99.90;;;;;;5035384;28;20252;-89
2022/03/16 04:23:46;;;;;;;48.47;37.13;;;7.80;99.90;;;;;;5033983;28;20192;-89
2022/03/16 04:26:12;;;;;;;47.37;36.10;;;7.70;99.90;;;;;;5029745;28;20271;-89
2022/03/16 04:28:38;;;;;;;45.93;35.10;;;7.70;99.90;;;;;;5064342;28;20183;-89
2022/03/16 04:31:03;;;;;;;46.73;35.27;;;7.60;99.90;;;;;;5048283;28;20208;-89
2022/03/16 04:33:30;;;;;;;48.73;35.70;;;7.70;99.90;;;;;;5056532;28;20210;-88
2022/03/16 04:35:55;;;;;;;48.27;35.27;;;7.70;99.90;;;;;;5064470;28;20235;-89
2022/03/16 04:38:21;;;;;;;45.60;36.30;;;7.70;99.90;;;;;;5055947;28;20180;-89
2022/03/16 04:40:47;;;;;;;45.60;34.57;;;7.70;99.90;;;;;;5046231;28;20200;-87
2022/03/16 04:43:14;;;;;;;49.30;36.80;;;7.80;99.90;;;;;;5047220;28;20232;-89
2022/03/16 04:45:40;;;;;;;48.07;34.63;;;7.80;99.90;;;;;;5052668;28;20191;-90
2022/03/16 04:48:11;;;;;;;43.23;33.03;;;7.80;99.90;;;;;;5055904;28;20191;-89
2022/03/16 04:50:38;;;;;;;48.47;35.03;;;7.80;99.90;;;;;;5056610;28;20187;-89
2022/03/16 04:53:04;;;;;;;44.77;34.40;;;7.80;99.90;;;;;;5087886;28;20270;-89
2022/03/16 04:55:29;;;;;;;45.43;34.27;;;7.80;99.90;;;;;;5074913;28;20210;-89
2022/03/16 04:57:55;;;;;;;43.80;35.57;;;7.80;99.90;;;;;;5060994;28;20192;-90
2022/03/16 05:00:21;;;;;;;43.63;34.37;;;7.80;99.90;;;;;;5044801;28;20212;-89
2022/03/16 05:02:47;;;;;;;45.50;33.90;;;7.80;99.90;;;;;;5065038;28;20212;-89
2022/03/16 05:05:13;;;;;;;55.27;44.60;;;7.70;99.90;;;;;;5037924;28;20252;-89
2022/03/16 05:07:40;;;;;;;47.33;40.20;;;7.70;99.90;;;;;;5047095;28;20184;-90
2022/03/16 05:10:12;;;;;;;42.80;33.43;;;7.80;99.90;;;;;;5064219;28;20597;-89
2022/03/16 05:12:39;;;;;;;44.60;34.90;;;7.80;99.90;;;;;;5051434;28;20362;-90
2022/03/16 05:15:07;;;;;;;45.20;34.10;;;7.80;99.90;;;;;;5045331;28;20192;-89
2022/03/16 05:17:33;;;;;;;42.57;32.03;;;7.80;99.90;;;;;;5062553;28;20180;-89
2022/03/16 05:19:59;;;;;;;42.50;33.13;;;7.80;99.90;;;;;;5033682;28;20197;-89
2022/03/16 05:22:25;;;;;;;45.07;35.97;;;7.70;99.90;;;;;;5025993;28;20239;-89
2022/03/16 05:24:50;;;;;;;42.23;33.97;;;7.70;99.90;;;;;;5053074;28;20189;-89
2022/03/16 05:27:19;;;;;;;42.17;33.03;;;7.70;99.90;;;;;;5064155;28;20232;-89
2022/03/16 05:29:45;;;;;;;37.67;32.60;;;7.70;99.90;;;;;;5026207;28;20199;-89
2022/03/16 05:32:12;;;;;;;39.10;32.60;;;7.50;99.90;;;;;;5043795;28;20201;-89
2022/03/16 05:34:37;;;;;;;42.60;32.43;;;7.60;99.90;;;;;;5061656;28;20224;-90
2022/03/16 05:37:04;;;;;;;38.30;32.20;;;7.60;99.90;;;;;;5053006;28;20189;-89
2022/03/16 05:39:29;;;;;;;36.43;30.43;;;7.60;99.90;;;;;;5055421;28;20223;-89
2022/03/16 05:41:55;;;;;;;37.50;31.37;;;7.60;99.90;;;;;;5051388;28;20205;-89
2022/03/16 05:44:21;;;;;;;37.40;31.27;;;7.70;99.90;;;;;;5012643;28;20181;-89
2022/03/16 05:46:47;;;;;;;35.53;30.23;;;7.60;99.90;;;;;;5058120;28;20180;-89
2022/03/16 05:49:12;;;;;;;36.40;30.43;;;7.60;99.90;;;;;;5071054;28;20199;-89
2022/03/16 05:51:38;;;;;;;37.70;30.73;;;7.70;99.90;;;;;;5041895;28;20231;-89
2022/03/16 05:54:04;;;;;;;35.87;30.13;;;7.60;99.90;;;;;;5065825;28;20241;-89
2022/03/16 05:56:31;;;;;;;35.53;30.43;;;7.60;99.90;;;;;;5062497;28;20188;-89
2022/03/16 05:58:57;;;;;;;34.77;31.00;;;7.60;99.90;;;;;;5043647;28;20238;-89
2022/03/16 06:01:23;;;;;;;33.20;28.90;;;7.60;99.90;;;;;;5049122;28;20204;-89
2022/03/16 06:03:49;;;;;;;33.97;29.90;;;7.60;99.90;;;;;;5048727;28;20184;-89
2022/03/16 06:06:15;;;;;;;31.97;27.73;;;7.50;99.90;;;;;;5040395;28;20577;-89
2022/03/16 06:08:41;;;;;;;34.03;28.60;;;7.60;99.90;;;;;;5048285;28;20188;-89
2022/03/16 06:11:07;;;;;;;33.10;27.37;;;7.60;99.90;;;;;;5066117;28;20187;-89
2022/03/16 06:13:32;;;;;;;30.47;27.07;;;7.70;99.90;;;;;;5071138;28;20221;-89
2022/03/16 06:15:58;;;;;;;31.70;27.23;;;7.70;99.90;;;;;;5046256;28;20256;-89
2022/03/16 06:18:24;;;;;;;31.63;27.60;;;7.70;99.90;;;;;;5049394;28;20909;-89
2022/03/16 06:20:49;;;;;;;35.10;29.10;;;7.70;99.90;;;;;;5031110;28;20185;-89
2022/03/16 06:23:16;;;;;;;31.90;27.13;;;7.70;99.90;;;;;;5064347;28;20221;-89
2022/03/16 06:25:42;;;;;;;31.37;27.97;;;7.70;99.90;;;;;;5064613;28;20285;-90
2022/03/16 06:28:08;;;;;;;31.60;28.20;;;7.60;99.90;;;;;;5064426;28;20211;-88
2022/03/16 06:30:33;;;;;;;31.43;28.07;;;7.60;99.90;;;;;;5066114;28;20195;-88
2022/03/16 06:32:59;;;;;;;30.47;27.27;;;7.60;99.90;;;;;;5069893;28;20223;-90
2022/03/16 06:35:25;;;;;;;33.27;27.23;;;7.70;99.90;;;;;;5050167;28;20203;-87
2022/03/16 06:37:51;;;;;;;33.00;29.57;;;7.70;99.90;;;;;;5032600;28;20621;-88
2022/03/16 06:40:16;;;;;;;32.10;28.60;;;7.70;99.90;;;;;;5067736;28;20224;-88
2022/03/16 06:42:50;;;;;;;31.87;28.47;;;7.60;99.90;;;;;;5068942;28;20384;-88
2022/03/16 06:45:17;;;;;;;32.03;27.07;;;7.70;99.90;;;;;;5065952;28;20184;-88
2022/03/16 06:47:43;;;;;;;31.53;28.13;;;7.80;99.90;;;;;;5039291;28;20261;-88
2022/03/16 06:50:09;;;;;;;31.70;28.30;;;7.80;99.90;;;;;;5051256;28;20247;-89
2022/03/16 06:52:35;;;;;;;31.37;28.00;;;7.80;99.90;;;;;;5064587;28;20215;-89
2022/03/16 06:55:00;;;;;;;32.57;29.03;;;7.80;99.90;;;;;;5073828;28;20251;-87
2022/03/16 06:57:26;;;;;;;32.60;26.80;;;7.80;99.90;;;;;;5050816;28;20196;-89
2022/03/16 06:59:52;;;;;;;31.47;26.60;;;7.80;99.90;;;;;;5029505;28;20212;-90
2022/03/16 07:02:18;;;;;;;32.90;27.63;;;7.80;99.90;;;;;;5044268;28;20267;-89
2022/03/16 07:04:43;;;;;;;32.27;28.10;;;7.80;99.90;;;;;;5025637;28;20196;-89
2022/03/16 07:07:09;;;;;;;31.77;27.27;;;7.90;99.90;;;;;;5060555;28;20180;-90
2022/03/16 07:09:34;;;;;;;33.37;29.23;;;7.90;99.90;;;;;;5064656;28;20180;-90
2022/03/16 07:12:01;;;;;;;31.60;28.23;;;8.00;99.90;;;;;;5059112;28;20200;-88
2022/03/16 07:14:32;;;;;;;34.73;31.00;;;8.00;99.90;;;;;;5057146;28;20188;-89
2022/03/16 07:17:00;;;;;;;36.93;31.47;;;8.00;99.90;;;;;;5047011;28;20193;-89
2022/03/16 07:19:26;;;;;;;33.33;28.37;;;7.90;99.90;;;;;;5064891;28;20845;-89
2022/03/16 07:21:52;;;;;;;34.03;29.77;;;8.00;99.90;;;;;;5064804;28;20378;-88
2022/03/16 07:24:17;;;;;;;43.30;38.60;;;8.00;99.90;;;;;;5054418;28;20187;-89
2022/03/16 07:26:43;;;;;;;41.87;36.33;;;8.10;99.90;;;;;;5044961;28;20234;-88
2022/03/16 07:29:09;;;;;;;32.90;29.33;;;8.10;99.90;;;;;;5030598;28;20275;-89
2022/03/16 07:31:35;;;;;;;33.63;29.97;;;8.10;99.90;;;;;;5062124;28;20735;-89
2022/03/16 07:34:01;;;;;;;36.33;29.97;;;8.10;99.90;;;;;;5046623;28;20184;-89
2022/03/16 07:36:27;;;;;;;37.77;33.77;;;8.10;99.90;;;;;;5042394;28;20192;-89
2022/03/16 07:38:53;;;;;;;38.60;32.60;;;8.10;99.90;;;;;;5062880;28;20227;-89
2022/03/16 07:41:19;;;;;;;44.37;39.50;;;8.10;99.90;;;;;;5045058;28;20216;-89
2022/03/16 07:43:45;;;;;;;37.20;32.87;;;8.10;99.90;;;;;;5052292;28;20181;-89
2022/03/16 07:46:11;;;;;;;33.40;28.10;;;8.20;99.90;;;;;;5063169;28;20184;-88
2022/03/16 07:48:38;;;;;;;33.23;29.67;;;8.20;99.90;;;;;;5052033;28;20255;-90
2022/03/16 07:51:03;;;;;;;36.00;30.43;;;8.20;99.90;;;;;;5062665;28;20192;-88
2022/03/16 07:53:29;;;;;;;35.00;31.33;;;8.20;99.90;;;;;;5063638;28;20218;-88
2022/03/16 07:55:57;;;;;;;36.57;32.53;;;8.30;99.90;;;;;;5056553;28;20182;-88
2022/03/16 07:58:23;;;;;;;35.40;31.60;;;8.30;99.90;;;;;;5056814;28;20191;-88
2022/03/16 08:00:49;;;;;;;31.97;28.40;;;8.30;99.90;;;;;;5045281;28;20177;-89
2022/03/16 08:03:14;;;;;;;34.97;30.43;;;8.40;99.90;;;;;;5041823;28;20279;-89
2022/03/16 08:05:40;;;;;;;37.13;31.63;;;8.40;99.90;;;;;;5048632;28;20177;-88
2022/03/16 08:08:06;;;;;;;34.77;30.77;;;8.40;99.90;;;;;;5061125;28;20595;-88
2022/03/16 08:10:32;;;;;;;36.03;29.97;;;8.40;99.90;;;;;;5048483;28;20211;-88
2022/03/16 08:12:58;;;;;;;33.27;29.67;;;8.40;99.90;;;;;;5053410;28;20265;-89
2022/03/16 08:15:24;;;;;;;39.93;31.43;;;8.50;99.90;;;;;;5019078;28;20193;-89
2022/03/16 08:17:50;;;;;;;34.37;30.53;;;8.50;99.90;;;;;;5046480;28;20195;-89
2022/03/16 08:20:18;;;;;;;32.50;28.93;;;8.60;99.90;;;;;;5033101;28;20611;-89
2022/03/16 08:22:44;;;;;;;31.10;27.90;;;8.60;99.90;;;;;;5060794;28;20193;-89
2022/03/16 08:25:12;;;;;;;31.73;28.30;;;8.70;99.90;;;;;;5048727;28;20177;-89
2022/03/16 08:27:39;;;;;;;31.00;27.67;;;8.80;99.90;;;;;;5055264;28;20193;-89
2022/03/16 08:30:07;;;;;;;32.37;27.97;;;9.00;99.90;;;;;;5071029;28;20235;-88
2022/03/16 08:32:33;;;;;;;32.37;27.90;;;8.90;99.90;;;;;;5059762;28;20277;-89
2022/03/16 08:34:58;;;;;;;30.80;27.67;;;9.00;99.90;;;;;;5049300;28;20185;-88
2022/03/16 08:37:24;;;;;;;31.93;27.90;;;9.00;99.90;;;;;;5054472;28;20246;-89
2022/03/16 08:39:52;;;;;;;32.00;28.33;;;9.20;99.90;;;;;;5041890;28;20233;-89
2022/03/16 08:42:18;;;;;;;39.00;28.73;;;9.30;99.90;;;;;;5029297;28;20209;-89
2022/03/16 08:44:45;;;;;;;33.33;29.20;;;9.30;99.90;;;;;;5055741;28;20189;-89
2022/03/16 08:47:12;;;;;;;32.57;28.63;;;9.40;99.90;;;;;;5036125;28;20187;-89
2022/03/16 08:49:38;;;;;;;33.23;27.87;;;9.50;99.90;;;;;;5047903;28;20192;-89
2022/03/16 08:52:05;;;;;;;37.17;30.67;;;9.50;99.90;;;;;;5058222;28;20208;-89
2022/03/16 08:54:31;;;;;;;36.13;29.00;;;9.60;99.90;;;;;;5053289;28;20188;-89
2022/03/16 08:56:57;;;;;;;34.17;29.60;;;9.70;99.90;;;;;;5030001;28;20211;-89
2022/03/16 08:59:25;;;;;;;33.20;28.87;;;9.70;99.90;;;;;;5051541;28;20258;-88
2022/03/16 09:01:51;;;;;;;35.90;29.50;;;9.80;99.90;;;;;;5053514;28;20196;-89
2022/03/16 09:04:17;;;;;;;35.67;29.90;;;9.70;99.90;;;;;;5035982;28;20193;-89
2022/03/16 09:06:43;;;;;;;34.50;29.27;;;9.90;99.90;;;;;;5044768;28;20201;-88
2022/03/16 09:09:08;;;;;;;34.90;29.30;;;10.00;99.90;;;;;;5027667;28;20189;-89
2022/03/16 09:11:35;;;;;;;33.97;30.23;;;10.10;99.90;;;;;;5028324;28;20300;-89
2022/03/16 09:14:01;;;;;;;37.50;30.27;;;10.20;99.90;;;;;;5048486;28;20193;-88
2022/03/16 09:16:28;;;;;;;36.53;30.40;;;10.30;99.90;;;;;;5033081;28;20211;-89
2022/03/16 09:18:54;;;;;;;35.77;30.13;;;10.40;99.90;;;;;;5033328;28;20275;-89
2022/03/16 09:21:20;;;;;;;39.20;31.20;;;10.50;99.90;;;;;;5050051;28;20267;-89
2022/03/16 09:23:45;;;;;;;39.43;32.90;;;10.60;99.90;;;;;;5032789;28;20909;-90
2022/03/16 09:26:12;;;;;;;40.63;34.23;;;10.60;99.90;;;;;;5031267;28;20181;-89
2022/03/16 09:28:38;;;;;;;39.87;32.97;;;10.70;99.90;;;;;;5049192;28;20181;-88
2022/03/16 09:31:03;;;;;;;48.40;39.57;;;10.80;99.90;;;;;;5049869;28;20216;-88
2022/03/16 09:33:32;;;;;;;40.60;33.57;;;10.90;99.90;;;;;;5032275;28;20682;-89
2022/03/16 09:36:00;;;;;;;39.13;33.60;;;11.00;99.90;;;;;;5051435;28;20177;-89
2022/03/16 09:38:26;;;;;;;42.27;31.93;;;11.10;99.90;;;;;;5048742;28;20180;-88
2022/03/16 09:40:54;;;;;;;37.53;32.93;;;11.20;99.90;;;;;;5031022;28;20196;-89
2022/03/16 09:43:23;;;;;;;38.73;32.93;;;11.40;99.90;;;;;;5030538;28;20200;-88
2022/03/16 09:46:04;;;;;;;40.10;32.93;;;11.40;99.90;;;;;;5030848;28;20248;-88
2022/03/16 09:48:31;;;;;;;38.83;32.43;;;11.50;99.90;;;;;;5048769;28;20178;-88
2022/03/16 09:50:58;;;;;;;39.10;31.80;;;11.70;99.90;;;;;;5053338;28;20263;-88
2022/03/16 09:53:28;;;;;;;36.30;31.80;;;11.60;99.90;;;;;;5035213;28;20217;-89
2022/03/16 09:55:55;;;;;;;39.03;31.97;;;11.60;99.90;;;;;;5068505;28;20172;-88
2022/03/16 09:58:21;;;;;;;40.77;33.20;;;11.70;99.90;;;;;;5049980;28;20207;-88
2022/03/16 10:00:47;;;;;;;37.30;30.90;;;11.70;99.90;;;;;;5049929;28;20252;-89
2022/03/16 10:03:15;;;;;;;39.27;31.07;;;11.70;99.90;;;;;;5049047;28;20213;-88
2022/03/16 10:05:42;;;;;;;35.53;30.30;;;11.60;99.90;;;;;;5032231;28;20188;-88
2022/03/16 10:08:08;;;;;;;39.87;33.17;;;11.60;99.90;;;;;;5050502;28;20284;-88
2022/03/16 10:13:23;;;;;;;38.13;31.37;;;11.70;99.90;;;;;;5032790;28;20212;-88
2022/03/16 10:15:51;;;;;;;35.67;30.17;;;11.80;99.90;;;;;;5043938;28;20280;-88
2022/03/16 10:18:20;;;;;;;33.90;29.53;;;11.90;99.90;;;;;;5049976;28;20212;-88
2022/03/16 10:20:48;;;;;;;35.83;29.77;;;12.10;98.70;;;;;;5048767;28;20252;-88
2022/03/16 10:23:27;;;;;;;34.00;30.40;;;12.10;99.40;;;;;;5066939;28;20199;-88
2022/03/16 10:25:55;;;;;;;32.60;28.93;;;12.40;98.90;;;;;;5054434;28;20159;-88
2022/03/16 10:28:23;;;;;;;34.07;30.37;;;12.40;97.60;;;;;;5071416;28;20181;-88
2022/03/16 10:30:52;;;;;;;33.53;29.10;;;12.60;96.30;;;;;;5068925;28;20710;-89
2022/03/16 10:33:19;;;;;;;34.63;30.93;;;12.60;95.70;;;;;;5057135;28;20219;-88
2022/03/16 10:36:00;;;;;;;34.27;30.50;;;12.80;95.90;;;;;;5029386;28;20184;-89
2022/03/16 10:38:26;;;;;;;32.23;28.73;;;12.70;95.80;;;;;;5042926;28;20194;-91
2022/03/16 10:40:55;;;;;;;34.77;30.30;;;12.60;96.20;;;;;;5071075;28;20190;-89
2022/03/16 10:49:05;;;;;;;32.70;28.27;;;12.70;96.30;;;;;;5079476;28;20190;-90
2022/03/16 10:51:32;;;;;;;33.33;29.67;;;12.90;94.00;;;;;;5054847;28;20217;-90
2022/03/16 10:54:00;;;;;;;34.10;30.40;;;12.90;94.80;;;;;;5062177;28;20191;-90
2022/03/16 10:56:27;;;;;;;33.70;30.17;;;12.90;94.60;;;;;;5040932;28;21035;-90
2022/03/16 10:58:54;;;;;;;30.73;27.43;;;13.10;94.80;;;;;;5066980;28;20203;-89
2022/03/16 11:01:22;;;;;;;30.57;27.30;;;13.30;92.90;;;;;;5066277;28;20200;-91
2022/03/16 11:03:49;;;;;;;32.43;28.57;;;13.40;92.50;;;;;;5049175;28;20176;-90
2022/03/16 11:06:20;;;;;;;32.00;28.60;;;13.50;92.90;;;;;;5044885;28;20210;-90
2022/03/16 11:08:50;;;;;;;30.97;27.63;;;13.40;92.80;;;;;;5050190;28;20183;-89
2022/03/16 11:14:11;;;;;;;28.40;24.67;;;13.80;91.60;;;;;;5032828;28;20195;-90
2022/03/16 11:16:37;;;;;;;29.80;26.83;;;13.60;91.10;;;;;;5030367;28;20312;-90
2022/03/16 11:19:05;;;;;;;29.13;26.10;;;13.30;92.70;;;;;;5062874;28;20623;-90
2022/03/16 11:21:45;;;;;;;28.30;25.23;;;13.30;92.70;;;;;;5043255;28;20286;-90
2022/03/16 11:24:17;;;;;;;27.63;24.67;;;13.30;93.40;;;;;;5051769;28;20176;-89
2022/03/16 11:27:17;;;;;;;30.17;26.97;;;13.10;93.90;;;;;;5035548;28;20192;-88
2022/03/16 11:30:12;;;;;;;26.77;23.67;;;13.10;94.30;;;;;;5065123;28;20333;-89
2022/03/16 11:32:43;;;;;;;27.17;24.37;;;13.10;93.50;;;;;;5053995;28;20230;-89
2022/03/16 11:35:13;;;;;;;27.13;24.33;;;13.20;94.00;;;;;;5058545;28;20737;-89
2022/03/16 11:37:44;;;;;;;27.43;24.40;;;13.40;94.20;;;;;;5028027;28;20276;-89
2022/03/16 11:40:16;;;;;;;25.93;23.27;;;13.50;93.20;;;;;;5035557;28;20279;-89
2022/03/16 11:43:04;;;;;;;27.43;23.67;;;13.60;93.10;;;;;;5053337;28;20576;-89
2022/03/16 11:45:54;;;;;;;29.70;24.67;;;13.50;92.40;;;;;;5036074;28;20186;-89
2022/03/16 11:48:33;;;;;;;39.27;25.90;;;13.40;93.10;;;;;;5067405;28;20184;-89
2022/03/16 11:51:20;;;;;;;27.37;23.87;;;13.40;95.00;;;;;;5056159;28;20214;-89
2022/03/16 11:53:57;;;;;;;27.23;23.90;;;13.50;93.70;;;;;;5046661;28;20195;-89
2022/03/16 11:56:36;;;;;;;26.63;23.83;;;13.50;93.20;;;;;;5027461;28;20191;-89
2022/03/16 11:59:09;;;;;;;26.93;24.03;;;13.70;93.00;;;;;;5052172;28;20200;-88
2022/03/16 12:01:37;;;;;;;26.87;24.03;;;13.60;92.90;;;;;;5052492;28;20268;-89
2022/03/16 12:04:12;;;;;;;26.53;23.83;;;13.60;93.60;;;;;;5052603;28;20205;-89
2022/03/16 12:06:54;;;;;;;28.57;25.57;;;13.60;92.90;;;;;;5042946;28;20248;-89
2022/03/16 12:09:56;;;;;;;29.67;25.27;;;13.50;93.10;;;;;;5059779;28;20223;-88
2022/03/16 12:15:30;;;;;;;27.57;24.20;;;13.60;93.50;;;;;;5030724;28;20219;-89
2022/03/16 12:17:59;;;;;;;26.37;23.73;;;13.60;92.90;;;;;;5007198;28;20196;-89
2022/03/16 12:20:30;;;;;;;28.00;24.07;;;13.70;92.70;;;;;;5052546;28;20256;-89
2022/03/16 12:23:09;;;;;;;28.00;25.00;;;13.80;91.70;;;;;;5043850;28;20213;-89
2022/03/16 12:25:36;;;;;;;24.80;22.13;;;13.90;91.80;;;;;;5060935;28;20185;-89
2022/03/16 12:31:02;;;;;;;29.37;23.13;;;14.30;89.70;;;;;;5045425;28;20196;-89
2022/03/16 12:33:35;;;;;;;28.10;23.90;;;14.10;91.00;;;;;;5055572;28;20203;-91
2022/03/16 12:36:02;;;;;;;27.67;24.73;;;14.20;90.60;;;;;;5042079;28;20425;-91
2022/03/16 12:38:30;;;;;;;26.87;23.43;;;14.30;90.90;;;;;;5019558;28;20196;-91
2022/03/16 12:43:44;;;;;;;28.57;23.43;;;14.60;89.50;;;;;;5044980;28;20166;-91
2022/03/16 12:46:29;;;;;;;26.93;24.10;;;14.60;88.40;;;;;;5058024;28;20187;-91
2022/03/16 12:48:57;;;;;;;28.13;25.13;;;14.70;88.60;;;;;;5021307;28;20202;-92
2022/03/16 12:51:40;;;;;;;28.33;25.33;;;14.70;88.90;;;;;;5060236;28;20207;-91
2022/03/16 12:54:07;;;;;;;27.20;24.40;;;14.80;87.80;;;;;;5038320;28;20226;-91